Time;durP1;ratioP1;P1;durP2;ratioP2;P2;SDS_P1;SDS_P2;PMS_P1;PMS_P2;Temp;Humidity;BMP_temperature;BMP_pressure;BME280_temperature;BME280_humidity;BME280_pressure;Samples;Min_cycle;Max_cycle;Signal;HPM_P1;HPM_P2
2023/06/22 00:00:10;;;;;;;10.93;5.72;;;;;;;18.66;100.00;95936.16;1043926;28;20032;-72
2023/06/22 00:00:42;;;;;;;10.68;5.53;;;;;;;18.66;100.00;95936.16;1052024;28;20050;-72
2023/06/22 00:01:12;;;;;;;13.55;6.05;;;;;;;18.61;100.00;95935.22;1050124;28;20092;-70
2023/06/22 00:01:43;;;;;;;10.00;5.43;;;;;;;18.62;100.00;95936.00;1046607;28;20051;-72
2023/06/22 00:02:13;;;;;;;9.13;5.30;;;;;;;18.64;100.00;95938.31;1046649;28;20025;-73
2023/06/22 00:02:44;;;;;;;11.57;6.13;;;;;;;18.60;100.00;95930.97;1042429;28;20078;-71
2023/06/22 00:03:14;;;;;;;14.07;5.63;;;;;;;18.64;100.00;95938.31;1040951;28;20051;-71
2023/06/22 00:03:45;;;;;;;10.98;5.30;;;;;;;18.65;100.00;95929.28;1042497;28;20121;-72
2023/06/22 00:04:15;;;;;;;13.88;5.28;;;;;;;18.64;100.00;95927.69;1042581;28;20032;-72
2023/06/22 00:04:45;;;;;;;7.25;5.25;;;;;;;18.62;100.00;95930.66;1038393;28;20029;-72
2023/06/22 00:05:16;;;;;;;12.52;6.15;;;;;;;18.61;100.00;95929.88;1042821;28;20033;-73
2023/06/22 00:05:47;;;;;;;11.48;5.40;;;;;;;18.57;100.00;95912.19;1046451;28;20465;-71
2023/06/22 00:06:17;;;;;;;9.40;5.35;;;;;;;18.60;100.00;95920.34;1038607;28;20045;-71
2023/06/22 00:06:48;;;;;;;13.35;5.32;;;;;;;18.60;100.00;95920.34;1046742;28;20500;-71
2023/06/22 00:07:18;;;;;;;8.40;5.25;;;;;;;18.57;100.00;95918.28;1045154;28;20815;-72
2023/06/22 00:07:49;;;;;;;8.27;5.70;;;;;;;18.60;100.00;95917.69;1045688;28;20025;-72
2023/06/22 00:08:19;;;;;;;11.15;5.00;;;;;;;18.55;100.00;95909.84;1034406;28;20092;-73
2023/06/22 00:08:50;;;;;;;12.95;5.97;;;;;;;18.60;100.00;95923.00;1042503;28;20045;-73
2023/06/22 00:09:20;;;;;;;9.88;4.97;;;;;;;18.59;100.00;95916.13;1042581;28;20074;-72
2023/06/22 00:09:50;;;;;;;15.45;5.78;;;;;;;18.58;100.00;95919.88;1042428;28;20021;-72
2023/06/22 00:10:21;;;;;;;8.00;4.95;;;;;;;18.58;100.00;95919.88;1046713;28;20024;-73
2023/06/22 00:10:52;;;;;;;15.88;5.35;;;;;;;18.56;100.00;95910.63;1041055;28;20044;-72
2023/06/22 00:11:23;;;;;;;10.88;5.88;;;;;;;18.61;100.00;95915.78;1037900;28;20017;-72
2023/06/22 00:11:53;;;;;;;11.75;5.43;;;;;;;18.61;100.00;95921.91;1038410;28;20013;-73
2023/06/22 00:12:24;;;;;;;7.53;5.30;;;;;;;18.62;100.00;95920.03;1039714;28;20060;-72
2023/06/22 00:12:54;;;;;;;11.70;5.28;;;;;;;18.60;100.00;95915.00;1046372;28;20021;-72
2023/06/22 00:13:25;;;;;;;12.23;5.88;;;;;;;18.63;100.00;95931.44;1042647;28;20471;-72
2023/06/22 00:13:55;;;;;;;8.60;5.00;;;;;;;18.62;100.00;95930.66;1038238;28;20406;-70
2023/06/22 00:14:25;;;;;;;13.18;5.13;;;;;;;18.61;100.00;95929.88;1038365;28;20033;-72
2023/06/22 00:14:56;;;;;;;10.02;5.18;;;;;;;18.57;100.00;95925.47;1034447;28;20018;-72
2023/06/22 00:15:27;;;;;;;9.23;5.38;;;;;;;18.60;100.00;95917.69;1038420;28;20033;-73
2023/06/22 00:15:57;;;;;;;8.98;5.60;;;;;;;18.59;100.00;95918.00;1046624;28;20074;-72
2023/06/22 00:16:27;;;;;;;13.02;5.50;;;;;;;18.62;100.00;95925.34;1046607;28;20033;-72
2023/06/22 00:16:58;;;;;;;9.10;5.05;;;;;;;18.63;100.00;95932.22;1042508;28;20553;-73
2023/06/22 00:17:29;;;;;;;14.80;5.78;;;;;;;18.62;100.00;95930.66;1043487;28;20047;-73
2023/06/22 00:17:59;;;;;;;7.43;5.00;;;;;;;18.62;100.00;95936.00;1042489;28;20036;-72
2023/06/22 00:18:31;;;;;;;10.18;5.53;;;;;;;18.62;100.00;95925.34;1042865;28;20025;-74
2023/06/22 00:19:03;;;;;;;11.88;5.70;;;;;;;18.64;100.00;95928.47;1055173;28;20035;-72
2023/06/22 00:19:35;;;;;;;10.60;5.80;;;;;;;18.65;100.00;95924.75;1050995;28;20115;-71
2023/06/22 00:20:08;;;;;;;9.68;5.28;;;;;;;18.65;100.00;95923.97;1043628;28;20376;-73
2023/06/22 00:20:38;;;;;;;10.25;5.25;;;;;;;18.64;100.00;95920.50;1038271;28;20474;-73
2023/06/22 00:21:09;;;;;;;9.35;4.75;;;;;;;18.62;100.00;95922.69;1038516;28;20025;-74
2023/06/22 00:21:39;;;;;;;9.23;5.47;;;;;;;18.54;100.00;95904.84;1038293;28;20407;-71
2023/06/22 00:22:10;;;;;;;7.18;4.68;;;;;;;18.61;100.00;95913.94;1034454;28;20122;-72
2023/06/22 00:22:41;;;;;;;10.38;5.50;;;;;;;18.60;100.00;95917.69;1038605;28;20511;-73
2023/06/22 00:23:13;;;;;;;10.25;5.40;;;;;;;18.53;100.00;95911.25;1034345;28;20026;-73
2023/06/22 00:23:44;;;;;;;10.52;5.50;;;;;;;18.58;100.00;95921.75;1030580;28;20139;-72
2023/06/22 00:24:14;;;;;;;11.45;5.65;;;;;;;18.53;100.00;95912.03;1042586;28;20091;-73
2023/06/22 00:24:45;;;;;;;11.65;6.03;;;;;;;18.59;100.00;95916.13;1046627;28;20024;-73
2023/06/22 00:25:15;;;;;;;10.48;5.40;;;;;;;18.52;100.00;95909.69;1045702;28;20024;-72
2023/06/22 00:25:46;;;;;;;10.07;5.47;;;;;;;18.58;100.00;95925.19;1046694;28;20032;-73
2023/06/22 00:26:17;;;;;;;9.55;5.07;;;;;;;18.50;100.00;95910.00;1042728;28;20025;-73
2023/06/22 00:26:48;;;;;;;13.93;5.10;;;;;;;18.53;100.00;95914.69;1036112;28;20026;-72
2023/06/22 00:27:19;;;;;;;12.07;5.13;;;;;;;18.50;100.00;95917.97;1034502;28;20096;-73
2023/06/22 00:27:49;;;;;;;9.35;4.95;;;;;;;18.55;100.00;95925.81;1038480;28;20060;-72
2023/06/22 00:28:20;;;;;;;8.93;5.35;;;;;;;18.54;100.00;95928.75;1042903;28;20025;-73
2023/06/22 00:28:50;;;;;;;13.25;5.25;;;;;;;18.55;100.00;95931.13;1038433;28;20044;-73
2023/06/22 00:29:21;;;;;;;9.80;4.90;;;;;;;18.40;100.00;95907.63;1038484;28;20025;-73
2023/06/22 00:29:51;;;;;;;9.73;5.20;;;;;;;18.52;100.00;95937.06;1034629;28;20492;-73
2023/06/22 00:30:22;;;;;;;9.27;5.40;;;;;;;18.52;100.00;95939.72;1046638;28;20263;-75
2023/06/22 00:30:52;;;;;;;13.70;5.03;;;;;;;18.52;100.00;95930.97;1050925;28;20473;-74
2023/06/22 00:31:23;;;;;;;16.58;5.55;;;;;;;18.49;100.00;95937.66;1033675;28;20034;-73
2023/06/22 00:31:53;;;;;;;8.40;4.38;;;;;;;18.44;100.00;95927.16;1032044;28;20033;-72
2023/06/22 00:32:24;;;;;;;8.50;5.40;;;;;;;18.48;100.00;95938.75;1042189;28;20029;-73
2023/06/22 00:32:54;;;;;;;9.48;5.47;;;;;;;18.48;100.00;95936.09;1046638;28;20043;-73
2023/06/22 00:33:24;;;;;;;7.22;4.95;;;;;;;18.46;100.00;95926.88;1041952;28;20080;-74
2023/06/22 00:33:55;;;;;;;11.45;5.35;;;;;;;18.43;100.00;95928.25;1034262;28;20041;-72
2023/06/22 00:34:25;;;;;;;9.15;5.55;;;;;;;18.46;100.00;95926.88;1036642;28;20041;-73
2023/06/22 00:34:56;;;;;;;11.68;5.70;;;;;;;18.45;100.00;95939.38;1038304;28;20040;-74
2023/06/22 00:35:29;;;;;;;14.15;5.22;;;;;;;18.45;100.00;95936.72;1041426;28;20569;-75
2023/06/22 00:35:59;;;;;;;9.77;5.00;;;;;;;18.45;100.00;95936.72;1046606;28;20020;-72
2023/06/22 00:36:29;;;;;;;11.75;5.15;;;;;;;18.44;100.00;95937.00;1042811;28;20021;-72
2023/06/22 00:37:00;;;;;;;10.52;5.40;;;;;;;18.43;100.00;95932.78;1042284;28;20106;-72
2023/06/22 00:37:30;;;;;;;9.52;4.93;;;;;;;18.38;100.00;95934.50;1042526;28;20033;-74
2023/06/22 00:38:02;;;;;;;6.88;5.00;;;;;;;18.40;100.00;95939.50;1042720;28;20036;-73
2023/06/22 00:38:32;;;;;;;10.18;5.13;;;;;;;18.35;100.00;95927.16;1038604;28;20021;-72
2023/06/22 00:39:03;;;;;;;12.82;5.45;;;;;;;18.35;100.00;95932.47;1038351;28;20029;-74
2023/06/22 00:39:33;;;;;;;14.32;5.55;;;;;;;18.38;100.00;95934.50;1038474;28;20067;-72
2023/06/22 00:40:05;;;;;;;11.80;4.95;;;;;;;18.35;100.00;95926.38;1038383;28;20028;-71
2023/06/22 00:40:35;;;;;;;10.73;5.22;;;;;;;18.38;100.00;95937.16;1045019;28;20029;-72
2023/06/22 00:41:06;;;;;;;7.72;4.80;;;;;;;18.39;100.00;95940.59;1041861;28;20639;-73
2023/06/22 00:41:36;;;;;;;11.18;4.95;;;;;;;18.33;100.00;95931.97;1038507;28;20280;-73
2023/06/22 00:42:06;;;;;;;6.50;4.30;;;;;;;18.38;100.00;95936.38;1036428;28;20038;-72
2023/06/22 00:42:40;;;;;;;9.70;4.70;;;;;;;18.37;100.00;95930.25;1042696;28;20029;-74
2023/06/22 00:43:11;;;;;;;8.30;4.88;;;;;;;18.37;100.00;95930.25;1043068;28;20043;-74
2023/06/22 00:43:42;;;;;;;9.80;5.60;;;;;;;18.37;100.00;95930.25;1050871;28;20727;-73
2023/06/22 00:44:12;;;;;;;17.65;5.38;;;;;;;18.36;100.00;95931.38;1047446;28;20074;-71
2023/06/22 00:44:43;;;;;;;8.95;4.60;;;;;;;18.32;100.00;95926.97;1042497;28;20021;-72
2023/06/22 00:45:15;;;;;;;11.77;5.20;;;;;;;18.35;100.00;95934.34;1042435;28;20064;-73
2023/06/22 00:45:46;;;;;;;9.23;4.72;;;;;;;18.35;100.00;95937.00;1038706;28;20079;-73
2023/06/22 00:46:16;;;;;;;11.88;4.70;;;;;;;18.36;100.00;95933.25;1036469;28;20621;-73
2023/06/22 00:46:46;;;;;;;11.38;5.43;;;;;;;18.31;100.00;95925.44;1034687;28;20511;-72
2023/06/22 00:47:17;;;;;;;9.75;5.10;;;;;;;18.34;100.00;95936.22;1043915;28;20025;-73
2023/06/22 00:47:48;;;;;;;15.30;5.05;;;;;;;18.33;100.00;95929.31;1042563;28;20067;-73
2023/06/22 00:48:19;;;;;;;8.13;4.88;;;;;;;18.26;100.00;95923.66;1034458;28;20092;-71
2023/06/22 00:48:50;;;;;;;12.38;5.47;;;;;;;18.33;100.00;95931.19;1039648;28;20025;-73
2023/06/22 00:49:20;;;;;;;13.68;5.35;;;;;;;18.32;100.00;95926.97;1042514;28;20104;-72
2023/06/22 00:49:51;;;;;;;11.30;5.15;;;;;;;18.32;100.00;95921.66;1034286;28;20021;-74
2023/06/22 00:50:22;;;;;;;10.48;5.68;;;;;;;18.27;100.00;95925.22;1038496;28;20101;-73
2023/06/22 00:50:55;;;;;;;9.65;5.03;;;;;;;18.30;100.00;95921.97;1038522;28;20116;-72
2023/06/22 00:51:26;;;;;;;11.20;4.65;;;;;;;18.28;100.00;95921.50;1029314;28;20022;-73
2023/06/22 00:51:57;;;;;;;8.77;4.97;;;;;;;18.30;100.00;95923.84;1038503;28;20026;-73
2023/06/22 00:52:29;;;;;;;8.45;4.72;;;;;;;18.22;100.00;95913.97;1041596;28;20479;-73
2023/06/22 00:53:07;;;;;;;11.90;5.35;;;;;;;18.22;100.00;95912.09;1046696;28;20025;-73
2023/06/22 00:53:38;;;;;;;9.25;5.03;;;;;;;18.30;100.00;95918.53;1038350;28;20025;-72
2023/06/22 00:54:08;;;;;;;8.50;4.50;;;;;;;18.28;100.00;95910.88;1034358;28;20405;-72
2023/06/22 00:54:45;;;;;;;14.32;5.05;;;;;;;18.29;100.00;95922.28;1046766;28;20024;-73
2023/06/22 00:55:17;;;;;;;9.68;4.57;;;;;;;18.25;100.00;95910.69;1044108;28;20171;-74
2023/06/22 00:55:51;;;;;;;9.48;5.32;;;;;;;18.28;100.00;95920.72;1040643;28;20021;-73
2023/06/22 00:56:24;;;;;;;9.98;4.95;;;;;;;18.21;100.00;95909.72;1035373;28;20021;-73
2023/06/22 00:56:56;;;;;;;7.95;4.80;;;;;;;18.26;100.00;95920.22;1027495;28;20824;-73
2023/06/22 00:57:27;;;;;;;9.23;5.25;;;;;;;18.26;100.00;95907.72;1034209;28;20069;-73
2023/06/22 00:57:58;;;;;;;12.50;5.15;;;;;;;18.25;100.00;95913.38;1035848;28;20049;-73
2023/06/22 00:58:28;;;;;;;10.48;4.85;;;;;;;18.22;100.00;95906.00;1039146;28;20538;-73
2023/06/22 00:58:59;;;;;;;10.05;4.90;;;;;;;18.21;100.00;95904.41;1038772;28;20122;-72
2023/06/22 00:59:29;;;;;;;11.43;4.93;;;;;;;18.22;100.00;95909.44;1042408;28;20096;-74
2023/06/22 01:00:00;;;;;;;9.02;4.95;;;;;;;18.16;100.00;95896.59;1038270;28;20036;-73
2023/06/22 01:00:30;;;;;;;9.80;4.95;;;;;;;18.17;100.00;95898.16;1038323;28;20442;-72
2023/06/22 01:01:01;;;;;;;8.52;4.40;;;;;;;18.19;100.00;95903.97;1042081;28;20043;-72
2023/06/22 01:01:34;;;;;;;12.27;6.47;;;;;;;18.19;100.00;95901.31;1042350;28;20040;-73
2023/06/22 01:02:04;;;;;;;11.65;5.90;;;;;;;18.19;100.00;95901.31;1042555;28;20025;-73
2023/06/22 01:02:36;;;;;;;11.85;5.35;;;;;;;18.18;100.00;95902.41;1043032;28;20426;-72
2023/06/22 01:03:10;;;;;;;12.23;5.15;;;;;;;18.14;100.00;95900.34;1045371;28;20024;-73
2023/06/22 01:03:40;;;;;;;9.38;5.15;;;;;;;18.14;100.00;95900.34;1042618;28;20040;-73
2023/06/22 01:04:11;;;;;;;8.45;4.82;;;;;;;18.09;100.00;95897.03;1039887;28;20067;-73
2023/06/22 01:04:42;;;;;;;9.93;5.10;;;;;;;18.16;100.00;95900.03;1046661;28;20032;-74
2023/06/22 01:05:13;;;;;;;10.48;5.18;;;;;;;18.13;100.00;95901.44;1046758;28;20107;-72
2023/06/22 01:05:46;;;;;;;11.23;5.57;;;;;;;18.11;100.00;95893.00;1038666;28;20021;-74
2023/06/22 01:06:21;;;;;;;11.25;5.70;;;;;;;18.15;100.00;95901.13;1041521;28;20112;-73
2023/06/22 01:06:59;;;;;;;6.32;4.25;;;;;;;18.09;100.00;95895.16;1039505;28;20045;-73
2023/06/22 01:07:37;;;;;;;10.68;4.88;;;;;;;18.10;100.00;95899.38;1039222;28;20395;-73
2023/06/22 01:08:23;;;;;;;15.55;5.40;;;;;;;18.06;100.00;95890.47;1042357;28;20021;-74
2023/06/22 01:09:01;;;;;;;12.32;4.75;;;;;;;18.08;100.00;95900.78;1046662;28;20081;-74
2023/06/22 01:09:33;;;;;;;7.40;4.60;;;;;;;18.05;100.00;95901.41;1042345;28;20041;-74
2023/06/22 01:10:12;;;;;;;8.73;6.15;;;;;;;18.08;100.00;95909.53;1042345;28;20025;-72
2023/06/22 01:10:54;;;;;;;9.95;4.53;;;;;;;18.07;100.00;95909.84;1034246;28;20018;-72
2023/06/22 01:11:28;;;;;;;8.60;4.78;;;;;;;18.01;100.00;95901.22;1044175;28;20016;-72
2023/06/22 01:12:01;;;;;;;9.60;5.03;;;;;;;18.07;100.00;95910.63;1044925;28;20024;-72
2023/06/22 01:12:34;;;;;;;8.90;4.68;;;;;;;18.06;100.00;95903.75;1042776;28;20032;-73
2023/06/22 01:13:14;;;;;;;7.50;4.38;;;;;;;18.07;100.00;95907.97;1040720;28;20024;-73
2023/06/22 01:13:50;;;;;;;8.85;4.88;;;;;;;18.07;100.00;95901.88;1040387;28;20095;-73
2023/06/22 01:14:24;;;;;;;10.65;5.32;;;;;;;18.07;100.00;95913.25;1046280;28;20025;-73
2023/06/22 01:14:58;;;;;;;10.63;4.70;;;;;;;18.04;100.00;95908.59;1042563;28;20021;-72
2023/06/22 01:15:30;;;;;;;10.57;4.75;;;;;;;18.06;100.00;95914.38;1038171;28;20041;-72
2023/06/22 01:16:03;;;;;;;11.27;4.75;;;;;;;18.07;100.00;95917.81;1043387;28;20025;-73
2023/06/22 01:16:35;;;;;;;10.48;4.85;;;;;;;18.04;100.00;95916.56;1042260;28;20380;-73
2023/06/22 01:17:05;;;;;;;10.27;5.53;;;;;;;18.03;100.00;95911.53;1038316;28;20637;-73
2023/06/22 01:17:36;;;;;;;9.82;5.28;;;;;;;18.03;100.00;95911.53;1042514;28;20028;-73
2023/06/22 01:18:06;;;;;;;8.98;4.68;;;;;;;18.00;100.00;95904.19;1038208;28;20079;-72
2023/06/22 01:18:37;;;;;;;11.75;4.80;;;;;;;18.04;100.00;95915.75;1039119;28;20029;-72
2023/06/22 01:19:35;;;;;;;7.60;4.88;;;;;;;18.05;100.00;95917.34;1043056;28;20062;-72
2023/06/22 01:20:06;;;;;;;7.95;4.82;;;;;;;18.01;100.00;95909.19;1047051;28;20102;-73
2023/06/22 01:20:37;;;;;;;6.70;4.43;;;;;;;18.00;100.00;95915.56;1043117;28;20047;-73
2023/06/22 01:21:08;;;;;;;7.93;5.20;;;;;;;18.00;100.00;95915.56;1038520;28;20041;-72
2023/06/22 01:21:38;;;;;;;12.00;5.20;;;;;;;18.00;100.00;95909.50;1037608;28;20404;-72
2023/06/22 01:22:12;;;;;;;7.68;4.15;;;;;;;17.99;100.00;95914.03;1043440;28;20020;-73
2023/06/22 01:23:18;;;;;;;8.05;5.18;;;;;;;18.01;100.00;95911.84;1037962;28;20406;-72
2023/06/22 01:23:55;;;;;;;10.00;5.35;;;;;;;17.99;100.00;95914.03;1044345;28;20249;-73
2023/06/22 01:24:28;;;;;;;7.80;5.10;;;;;;;17.96;100.00;95911.19;1055086;27;20016;-73
2023/06/22 01:25:07;;;;;;;8.63;4.70;;;;;;;17.96;100.00;95911.19;1050625;28;20094;-73
2023/06/22 01:26:02;;;;;;;11.77;5.47;;;;;;;17.96;100.00;95924.47;1040810;28;20025;-72
2023/06/22 01:26:43;;;;;;;8.10;4.43;;;;;;;17.96;100.00;95919.16;1031753;28;20026;-74
2023/06/22 01:27:36;;;;;;;10.25;4.90;;;;;;;17.95;100.00;95921.03;1037963;28;20025;-73
2023/06/22 01:28:34;;;;;;;12.68;4.50;;;;;;;17.90;100.00;95910.53;1046519;28;20016;-73
2023/06/22 01:29:04;;;;;;;12.80;5.60;;;;;;;17.91;100.00;95917.44;1047235;28;20025;-72
2023/06/22 01:29:35;;;;;;;8.15;5.10;;;;;;;17.88;100.00;95920.69;1043283;28;20017;-73
2023/06/22 01:30:06;;;;;;;11.45;5.35;;;;;;;17.86;100.00;95914.88;1039972;28;20558;-73
2023/06/22 01:30:39;;;;;;;12.85;5.60;;;;;;;17.86;100.00;95914.88;1035018;28;20022;-73
2023/06/22 01:31:10;;;;;;;8.93;4.80;;;;;;;17.82;100.00;95913.94;1038271;28;20018;-71
2023/06/22 01:31:41;;;;;;;10.18;5.25;;;;;;;17.85;100.00;95923.94;1039143;28;20530;-72
2023/06/22 01:32:11;;;;;;;9.32;4.90;;;;;;;17.87;100.00;95929.72;1043340;28;20017;-72
2023/06/22 01:32:42;;;;;;;8.25;5.07;;;;;;;17.84;100.00;95917.06;1035167;28;20023;-73
2023/06/22 01:33:13;;;;;;;10.13;5.45;;;;;;;17.84;100.00;95927.69;1039090;28;20491;-72
2023/06/22 01:33:46;;;;;;;9.65;5.20;;;;;;;17.84;100.00;95933.78;1039068;28;20024;-72
2023/06/22 01:34:17;;;;;;;10.80;5.22;;;;;;;17.84;100.00;95935.63;1030996;28;20056;-73
2023/06/22 01:34:47;;;;;;;12.45;5.63;;;;;;;17.86;100.00;95936.13;1035273;28;20033;-72
2023/06/22 01:35:18;;;;;;;11.32;5.03;;;;;;;17.86;100.00;95936.13;1035527;28;20021;-72
2023/06/22 01:35:48;;;;;;;11.30;5.30;;;;;;;17.86;100.00;95930.81;1035231;28;20029;-72
2023/06/22 01:36:19;;;;;;;12.27;5.40;;;;;;;17.85;100.00;95934.56;1043330;28;20032;-72
2023/06/22 01:36:50;;;;;;;7.15;5.15;;;;;;;17.73;100.00;95915.72;1043596;28;20025;-73
2023/06/22 01:37:21;;;;;;;7.95;4.65;;;;;;;17.82;100.00;95929.88;1034893;28;20064;-73
2023/06/22 01:37:51;;;;;;;12.05;5.25;;;;;;;17.80;100.00;95926.72;1031061;28;20033;-73
2023/06/22 01:38:22;;;;;;;12.23;5.10;;;;;;;17.82;100.00;95929.88;1027204;28;20533;-74
2023/06/22 01:38:53;;;;;;;9.25;5.88;;;;;;;17.84;100.00;95936.44;1038365;28;20021;-74
2023/06/22 01:39:23;;;;;;;12.52;5.22;;;;;;;17.85;100.00;95934.56;1034992;28;20041;-72
2023/06/22 01:39:54;;;;;;;9.52;5.40;;;;;;;17.84;100.00;95939.09;1031004;28;20489;-73
2023/06/22 01:40:24;;;;;;;10.75;5.35;;;;;;;17.86;100.00;95944.09;1034943;28;20057;-73
2023/06/22 01:40:56;;;;;;;11.88;5.70;;;;;;;17.85;100.00;95938.00;1034965;28;20475;-73
2023/06/22 01:41:26;;;;;;;7.90;4.72;;;;;;;17.80;100.00;95932.81;1045090;28;20237;-73
2023/06/22 01:41:57;;;;;;;8.63;5.07;;;;;;;17.85;100.00;95934.56;1038077;28;20036;-74
2023/06/22 01:42:27;;;;;;;9.45;5.40;;;;;;;17.84;100.00;95944.41;1030959;28;20058;-73
2023/06/22 01:42:58;;;;;;;15.52;5.20;;;;;;;17.80;100.00;95932.03;1034922;28;20068;-72
2023/06/22 01:43:28;;;;;;;9.40;4.85;;;;;;;17.85;100.00;95938.00;1039102;28;20655;-72
2023/06/22 01:43:58;;;;;;;9.30;4.80;;;;;;;17.86;100.00;95946.75;1043123;28;20066;-73
2023/06/22 01:44:29;;;;;;;7.75;5.20;;;;;;;17.81;100.00;95930.97;1047422;28;20393;-73
2023/06/22 01:45:00;;;;;;;9.65;5.50;;;;;;;17.85;100.00;95947.84;1043306;28;20406;-72
2023/06/22 01:45:30;;;;;;;11.05;4.90;;;;;;;17.86;100.00;95942.22;1042813;28;20029;-71
2023/06/22 01:46:01;;;;;;;11.45;5.55;;;;;;;17.85;100.00;95945.19;1043302;28;20044;-74
2023/06/22 01:46:32;;;;;;;9.27;4.90;;;;;;;17.79;100.00;95935.78;1039333;28;20033;-72
2023/06/22 01:47:03;;;;;;;9.27;5.10;;;;;;;17.85;100.00;95945.19;1045535;28;20104;-74
2023/06/22 01:47:33;;;;;;;10.75;4.43;;;;;;;17.84;100.00;95948.91;1043219;28;20032;-73
2023/06/22 01:48:04;;;;;;;7.70;4.57;;;;;;;17.83;100.00;95944.69;1034976;28;20034;-73
2023/06/22 01:48:35;;;;;;;9.10;4.57;;;;;;;17.83;100.00;95947.34;1033955;28;20018;-72
2023/06/22 01:49:05;;;;;;;9.40;5.07;;;;;;;17.84;100.00;95948.91;1034212;28;20034;-73
2023/06/22 01:49:35;;;;;;;9.55;4.95;;;;;;;17.83;100.00;95950.00;1039012;28;20825;-72
2023/06/22 01:50:06;;;;;;;10.50;4.75;;;;;;;17.77;100.00;95943.25;1038996;28;20025;-72
2023/06/22 01:50:37;;;;;;;10.55;5.20;;;;;;;17.79;100.00;95949.06;1041101;28;20064;-73
2023/06/22 01:51:07;;;;;;;17.85;4.90;;;;;;;17.79;100.00;95941.88;1037027;28;20899;-72
2023/06/22 01:51:38;;;;;;;7.40;4.82;;;;;;;17.82;100.00;95945.78;1043387;28;20067;-73
2023/06/22 01:52:08;;;;;;;8.95;4.70;;;;;;;17.81;100.00;95952.19;1047307;28;20036;-72
2023/06/22 01:52:39;;;;;;;12.10;5.68;;;;;;;17.83;100.00;95947.34;1035120;28;20369;-73
2023/06/22 01:53:09;;;;;;;11.05;4.85;;;;;;;17.83;100.00;95948.13;1035124;28;20025;-74
2023/06/22 01:53:39;;;;;;;10.52;4.60;;;;;;;17.82;100.00;95941.25;1038087;28;20495;-72
2023/06/22 01:54:10;;;;;;;11.00;4.97;;;;;;;17.84;100.00;95948.91;1039084;28;20050;-72
2023/06/22 01:54:41;;;;;;;13.00;5.15;;;;;;;17.84;100.00;95943.59;1047365;28;20024;-72
2023/06/22 01:55:11;;;;;;;12.35;5.10;;;;;;;17.84;100.00;95944.41;1043366;28;20037;-72
2023/06/22 01:55:42;;;;;;;10.18;5.15;;;;;;;17.84;100.00;95949.72;1047108;28;20556;-72
2023/06/22 01:56:12;;;;;;;10.85;5.00;;;;;;;17.84;100.00;95948.91;1047342;28;20032;-72
2023/06/22 01:56:43;;;;;;;8.20;5.25;;;;;;;17.83;100.00;95939.38;1043487;28;20025;-73
2023/06/22 01:57:13;;;;;;;11.23;5.15;;;;;;;17.83;100.00;95950.00;1043105;28;20076;-73
2023/06/22 01:57:43;;;;;;;9.30;5.13;;;;;;;17.77;100.00;95943.25;1043240;28;20510;-72
2023/06/22 01:58:14;;;;;;;13.27;5.10;;;;;;;17.77;100.00;95937.94;1043200;28;20025;-73
2023/06/22 01:58:50;;;;;;;13.98;4.93;;;;;;;17.82;100.00;95945.78;1043173;28;20025;-73
2023/06/22 01:59:34;;;;;;;10.77;5.28;;;;;;;17.79;100.00;95941.88;1039101;28;20464;-71
2023/06/22 02:00:08;;;;;;;9.63;5.38;;;;;;;17.78;100.00;95936.88;1034939;28;20032;-73
2023/06/22 02:00:38;;;;;;;10.00;5.20;;;;;;;17.82;100.00;95946.56;1034898;28;20029;-72
2023/06/22 02:01:10;;;;;;;8.27;5.28;;;;;;;17.80;100.00;95942.66;1042624;28;20021;-73
2023/06/22 02:01:47;;;;;;;11.68;5.70;;;;;;;17.76;100.00;95939.00;1035009;28;20593;-72
2023/06/22 02:02:19;;;;;;;14.57;5.28;;;;;;;17.76;100.00;95939.00;1043056;28;20112;-71
2023/06/22 02:02:53;;;;;;;17.55;4.80;;;;;;;17.75;100.00;95938.22;1039503;28;20063;-72
2023/06/22 02:03:28;;;;;;;10.93;5.35;;;;;;;17.74;100.00;95939.31;1038139;28;20056;-72
2023/06/22 02:04:06;;;;;;;11.30;4.68;;;;;;;17.75;100.00;95948.84;1030846;28;20043;-74
2023/06/22 02:04:46;;;;;;;8.98;4.78;;;;;;;17.64;100.00;95929.75;1041090;28;20129;-71
2023/06/22 02:05:17;;;;;;;9.23;5.15;;;;;;;17.72;100.00;95946.00;1041974;28;20086;-72
2023/06/22 02:05:49;;;;;;;7.90;4.90;;;;;;;17.71;100.00;95944.47;1047196;28;20052;-73
2023/06/22 02:06:34;;;;;;;7.68;5.15;;;;;;;17.64;100.00;95945.66;1034866;28;20030;-73
2023/06/22 02:07:07;;;;;;;9.82;4.90;;;;;;;17.61;100.00;95938.31;1036531;28;20034;-73
2023/06/22 02:07:41;;;;;;;9.45;5.28;;;;;;;17.67;100.00;95946.91;1040943;28;20525;-73
2023/06/22 02:08:23;;;;;;;11.35;4.88;;;;;;;17.56;100.00;95932.31;1034993;28;20061;-73
2023/06/22 02:08:57;;;;;;;11.32;5.35;;;;;;;17.58;100.00;95946.09;1034986;28;20092;-73
2023/06/22 02:09:29;;;;;;;11.25;4.57;;;;;;;17.60;100.00;95955.28;1039077;28;20046;-73
2023/06/22 02:09:59;;;;;;;6.50;4.93;;;;;;;17.59;100.00;95948.41;1038998;28;20061;-71
2023/06/22 02:10:30;;;;;;;11.43;5.43;;;;;;;17.53;100.00;95940.88;1036479;28;20570;-73
2023/06/22 02:11:00;;;;;;;8.30;5.13;;;;;;;17.58;100.00;95957.47;1040475;28;20033;-73
2023/06/22 02:11:30;;;;;;;10.68;5.38;;;;;;;17.53;100.00;95943.53;1038889;28;20180;-71
2023/06/22 02:12:01;;;;;;;10.15;5.63;;;;;;;17.52;100.00;95948.06;1043102;28;20025;-72
2023/06/22 02:12:31;;;;;;;9.57;5.38;;;;;;;17.52;100.00;95947.28;1042405;28;20558;-72
2023/06/22 02:13:04;;;;;;;12.27;5.60;;;;;;;17.54;100.00;95951.22;1032910;28;20037;-73
2023/06/22 02:13:36;;;;;;;8.85;5.45;;;;;;;17.53;100.00;95946.97;1043107;28;20530;-74
2023/06/22 02:14:07;;;;;;;11.25;4.97;;;;;;;17.51;100.00;95946.50;1043061;28;20025;-73
2023/06/22 02:14:37;;;;;;;12.60;6.18;;;;;;;17.52;100.00;95953.38;1046503;28;20410;-74
2023/06/22 02:15:09;;;;;;;11.23;5.25;;;;;;;17.51;100.00;95951.03;1034568;28;20197;-72
2023/06/22 02:15:39;;;;;;;11.00;4.88;;;;;;;17.52;100.00;95948.06;1038989;28;20021;-71
2023/06/22 02:16:13;;;;;;;11.35;4.90;;;;;;;17.51;100.00;95945.72;1039159;28;20021;-73
2023/06/22 02:16:43;;;;;;;12.35;5.40;;;;;;;17.51;100.00;95946.50;1043541;28;20020;-73
2023/06/22 02:17:14;;;;;;;11.02;5.50;;;;;;;17.48;100.00;95946.31;1041253;28;20030;-72
2023/06/22 02:17:44;;;;;;;9.63;5.07;;;;;;;17.46;100.00;95949.25;1038995;28;20473;-73
2023/06/22 02:18:15;;;;;;;9.23;5.13;;;;;;;17.46;100.00;95938.66;1042879;28;20021;-72
2023/06/22 02:18:46;;;;;;;10.95;5.47;;;;;;;17.47;100.00;95942.09;1043156;28;20032;-72
2023/06/22 02:19:18;;;;;;;8.77;5.00;;;;;;;17.46;100.00;95943.94;1047208;28;20035;-73
2023/06/22 02:19:48;;;;;;;10.63;5.78;;;;;;;17.31;100.00;95923.09;1042923;28;20163;-73
2023/06/22 02:20:20;;;;;;;10.98;5.50;;;;;;;17.37;100.00;95933.28;1043047;28;20091;-72
2023/06/22 02:20:50;;;;;;;9.57;5.78;;;;;;;17.40;100.00;95935.34;1039121;28;20029;-74
2023/06/22 02:21:21;;;;;;;9.90;6.03;;;;;;;17.36;100.00;95925.63;1042601;28;20483;-73
2023/06/22 02:21:51;;;;;;;8.90;5.72;;;;;;;17.41;100.00;95936.13;1039408;28;20025;-72
2023/06/22 02:22:21;;;;;;;10.38;5.80;;;;;;;17.42;100.00;95937.69;1034304;28;20021;-72
2023/06/22 02:22:52;;;;;;;9.75;5.60;;;;;;;17.37;100.00;95925.34;1034273;28;20072;-73
2023/06/22 02:23:22;;;;;;;15.60;5.88;;;;;;;17.37;100.00;95935.94;1034909;28;20026;-73
2023/06/22 02:23:53;;;;;;;13.82;5.55;;;;;;;17.42;100.00;95932.38;1039439;28;20033;-71
2023/06/22 02:24:23;;;;;;;12.38;5.80;;;;;;;17.39;100.00;95932.97;1047288;28;20028;-73
2023/06/22 02:24:54;;;;;;;10.63;5.38;;;;;;;17.41;100.00;95933.47;1046855;28;20020;-71
2023/06/22 02:25:24;;;;;;;10.90;5.57;;;;;;;17.38;100.00;95931.41;1042995;28;20021;-74
2023/06/22 02:25:55;;;;;;;8.90;5.20;;;;;;;17.39;100.00;95939.06;1039303;28;20521;-72
2023/06/22 02:26:25;;;;;;;14.75;6.38;;;;;;;17.40;100.00;95935.34;1043451;28;20017;-72
2023/06/22 02:26:55;;;;;;;14.05;5.85;;;;;;;17.34;100.00;95930.47;1035194;28;20345;-72
2023/06/22 02:27:26;;;;;;;8.05;5.78;;;;;;;17.39;100.00;95932.97;1035056;28;20092;-73
2023/06/22 02:27:56;;;;;;;13.68;5.75;;;;;;;17.38;100.00;95931.41;1035287;28;20028;-72
2023/06/22 02:28:27;;;;;;;10.73;6.28;;;;;;;17.38;100.00;95931.41;1032627;28;20481;-73